Time;durP1;ratioP1;P1;durP2;ratioP2;P2;SDS_P1;SDS_P2;PMS_P1;PMS_P2;Temp;Humidity;BMP_temperature;BMP_pressure;BME280_temperature;BME280_humidity;BME280_pressure;Samples;Min_cycle;Max_cycle;Signal;HPM_P1;HPM_P2
2024/04/19 00:00:49;;;;;;;9.20;3.05;;;;;;;5.40;100.00;100394.69;5393712;26;20003;-73
2024/04/19 00:03:14;;;;;;;8.47;3.53;;;;;;;5.36;100.00;100395.94;5387649;26;20011;-73
2024/04/19 00:05:41;;;;;;;14.20;3.33;;;;;;;5.41;100.00;100433.44;5383646;26;20242;-73
2024/04/19 00:08:26;;;;;;;9.65;3.55;;;;;;;5.52;100.00;100428.97;5402608;26;20015;-73
2024/04/19 00:10:55;;;;;;;7.05;2.97;;;;;;;5.71;100.00;100439.56;5388148;26;20000;-73
2024/04/19 00:13:25;;;;;;;12.02;3.42;;;;;;;5.62;100.00;100414.78;5396772;26;20011;-73
2024/04/19 00:15:51;;;;;;;14.45;3.35;;;;;;;5.47;100.00;100410.84;5388885;26;20016;-73
2024/04/19 00:18:16;;;;;;;7.07;2.72;;;;;;;5.66;100.00;100415.31;5387637;26;20469;-73
2024/04/19 00:20:42;;;;;;;9.15;3.05;;;;;;;5.62;100.00;100403.31;5372810;26;20040;-73
2024/04/19 00:23:08;;;;;;;7.88;3.42;;;;;;;5.56;100.00;100394.13;5393322;26;20000;-72
2024/04/19 00:25:36;;;;;;;12.70;3.35;;;;;;;5.33;100.00;100380.31;5450266;26;20003;-73
2024/04/19 00:28:02;;;;;;;9.27;2.92;;;;;;;5.36;100.00;100379.19;5394557;26;20067;-73
2024/04/19 00:30:28;;;;;;;8.82;2.70;;;;;;;5.33;100.00;100379.50;5371845;26;20975;-73
2024/04/19 00:32:54;;;;;;;;;;;;;;;5.37;100.00;100392.31;5378585;26;20458;-72
2024/04/19 00:35:19;;;;;;;8.43;3.05;;;;;;;5.43;100.00;100412.94;5380934;26;19941;-73
2024/04/19 00:37:45;;;;;;;10.20;2.77;;;;;;;5.49;100.00;100399.16;5398233;26;20411;-73
2024/04/19 00:40:29;;;;;;;17.02;4.00;;;;;;;5.40;100.00;100377.97;5378040;26;20015;-73
2024/04/19 00:42:56;;;;;;;8.52;3.65;;;;;;;5.45;100.00;100396.91;5372271;26;20000;-73
2024/04/19 00:45:33;;;;;;;12.18;3.55;;;;;;;5.35;100.00;100391.63;5389884;26;21270;-73
2024/04/19 00:48:00;;;;;;;7.68;3.30;;;;;;;5.45;100.00;100403.03;5419882;26;20004;-74
2024/04/19 00:50:50;;;;;;;17.33;4.10;;;;;;;5.27;100.00;100384.38;5384854;26;20003;-73
2024/04/19 00:53:26;;;;;;;13.32;4.47;;;;;;;5.34;100.00;100400.53;5386340;26;20001;-74
2024/04/19 00:55:52;;;;;;;11.60;4.90;;;;;;;5.49;100.00;100416.84;5381980;26;20000;-74
2024/04/19 00:58:18;;;;;;;8.77;4.50;;;;;;;5.35;100.00;100396.91;5454093;26;20092;-74
2024/04/19 01:00:44;;;;;;;;;;;;;;;5.43;100.00;100405.00;5377892;26;20004;-74
2024/04/19 01:03:12;;;;;;;9.15;3.90;;;;;;;5.18;100.00;100400.22;5429856;26;19925;-74
2024/04/19 01:05:38;;;;;;;15.80;4.47;;;;;;;5.30;100.00;100404.44;5393302;26;20026;-74
2024/04/19 01:08:24;;;;;;;11.30;4.90;;;;;;;5.23;100.00;100405.94;5404786;26;19995;-75
2024/04/19 01:10:49;;;;;;;17.60;5.60;;;;;;;5.26;100.00;100409.13;5381276;26;20340;-74
2024/04/19 01:13:15;;;;;;;11.07;5.25;;;;;;;5.10;100.00;100386.81;5394982;26;20010;-74
2024/04/19 01:15:41;;;;;;;13.40;4.13;;;;;;;5.19;100.00;100396.59;5378335;26;19997;-74
2024/04/19 01:18:07;;;;;;;10.52;3.10;;;;;;;5.07;100.00;100366.78;5371615;26;20003;-74
2024/04/19 01:20:32;;;;;;;17.20;3.53;;;;;;;5.21;100.00;100354.97;5371694;26;20004;-74
2024/04/19 01:22:59;;;;;;;16.10;3.95;;;;;;;5.31;100.00;100342.56;5387963;26;20000;-75
2024/04/19 01:25:31;;;;;;;11.60;3.70;;;;;;;5.11;100.00;100309.13;5393022;26;20080;-73
2024/04/19 01:27:56;;;;;;;8.10;3.22;;;;;;;5.09;100.00;100314.56;5401517;26;20000;-74
2024/04/19 01:30:22;;;;;;;9.25;3.50;;;;;;;5.12;100.00;100319.56;5380914;26;20910;-73
2024/04/19 01:32:47;;;;;;;9.90;3.25;;;;;;;5.10;100.00;100307.44;5376459;26;20224;-73
2024/04/19 01:35:13;;;;;;;12.37;3.70;;;;;;;4.89;100.00;100287.22;5389668;26;20019;-75
2024/04/19 01:37:38;;;;;;;11.17;3.80;;;;;;;4.94;100.00;100285.03;5378669;26;20491;-74
2024/04/19 01:40:04;;;;;;;8.90;3.73;;;;;;;4.91;100.00;100293.22;5371736;26;20269;-74
2024/04/19 01:42:29;;;;;;;10.10;3.17;;;;;;;5.06;100.00;100301.59;5371508;26;20004;-73
2024/04/19 01:45:03;;;;;;;10.95;4.55;;;;;;;5.07;100.00;100304.09;5376686;26;20035;-74
2024/04/19 01:47:29;;;;;;;8.32;4.07;;;;;;;4.99;100.00;100303.97;5391856;26;20003;-74
2024/04/19 01:49:54;;;;;;;12.07;4.27;;;;;;;4.90;100.00;100286.25;5401985;26;20003;-75
2024/04/19 01:52:20;;;;;;;15.87;4.53;;;;;;;4.84;100.00;100281.50;5385757;26;20563;-74
2024/04/19 01:54:45;;;;;;;11.60;4.83;;;;;;;4.96;100.00;100284.84;5398227;26;20222;-74
2024/04/19 01:57:11;;;;;;;8.20;4.10;;;;;;;5.08;100.00;100281.97;5384480;26;19995;-75
2024/04/19 01:59:36;;;;;;;14.98;4.75;;;;;;;5.00;100.00;100263.28;5412905;26;20259;-74
2024/04/19 02:02:02;;;;;;;9.65;3.85;;;;;;;4.89;100.00;100247.53;5401772;26;19995;-74
2024/04/19 02:04:27;;;;;;;8.75;3.45;;;;;;;4.97;100.00;100253.00;5386137;26;20460;-74
2024/04/19 02:06:53;;;;;;;7.55;3.75;;;;;;;4.83;100.00;100237.53;5399716;26;20076;-75
2024/04/19 02:09:34;;;;;;;7.97;4.07;;;;;;;4.79;100.00;100231.66;5399293;26;20374;-75
2024/04/19 02:12:00;;;;;;;11.95;4.07;;;;;;;4.71;100.00;100231.53;5404147;26;20454;-74
2024/04/19 02:14:26;;;;;;;11.65;4.30;;;;;;;4.81;100.00;100234.19;5391940;26;20022;-74
2024/04/19 02:16:51;;;;;;;14.55;5.05;;;;;;;4.84;100.00;100228.59;5381618;26;19999;-74
2024/04/19 02:19:17;;;;;;;7.70;3.78;;;;;;;4.70;100.00;100221.06;5371506;26;20000;-75
2024/04/19 02:21:42;;;;;;;10.32;4.68;;;;;;;4.78;100.00;100224.72;5381183;26;20000;-74
2024/04/19 02:24:08;;;;;;;8.20;4.53;;;;;;;4.73;100.00;100207.56;5389820;26;20073;-75
2024/04/19 02:26:34;;;;;;;10.02;3.85;;;;;;;4.77;100.00;100201.03;5384959;26;20238;-75
2024/04/19 02:31:44;;;;;;;13.80;4.05;;;;;;;4.69;100.00;100166.53;5397674;26;20446;-74
2024/04/19 02:34:10;;;;;;;6.88;3.28;;;;;;;4.81;100.00;100170.69;5392971;26;20015;-74
2024/04/19 02:36:35;;;;;;;5.25;3.20;;;;;;;4.52;100.00;100142.44;5385467;26;20000;-74
2024/04/19 02:39:01;;;;;;;10.48;3.83;;;;;;;4.61;100.00;100148.69;5370683;26;20004;-74
2024/04/19 02:41:26;;;;;;;11.38;3.75;;;;;;;4.65;100.00;100148.28;5370611;26;20006;-74
2024/04/19 02:43:52;;;;;;;8.80;4.28;;;;;;;4.62;100.00;100142.44;5374496;26;20369;-74
2024/04/19 02:46:17;;;;;;;13.00;4.03;;;;;;;4.53;100.00;100122.13;5378550;26;20003;-74
2024/04/19 02:48:43;;;;;;;7.93;3.63;;;;;;;4.63;100.00;100126.44;5382950;26;20450;-74
2024/04/19 02:51:09;;;;;;;6.25;4.03;;;;;;;4.59;100.00;100119.78;5386649;26;20004;-75
2024/04/19 02:53:34;;;;;;;8.70;3.92;;;;;;;4.58;100.00;100127.81;5380861;26;20000;-74
2024/04/19 02:56:00;;;;;;;10.75;4.85;;;;;;;4.67;100.00;100120.88;5385024;26;19999;-75
2024/04/19 02:58:26;;;;;;;7.97;3.95;;;;;;;4.75;100.00;100113.94;5398522;26;20015;-74
2024/04/19 03:00:51;;;;;;;9.35;3.78;;;;;;;4.59;100.00;100090.69;5406157;26;20478;-73
2024/04/19 03:03:16;;;;;;;8.77;4.90;;;;;;;4.52;100.00;100092.22;5386719;26;20458;-74
2024/04/19 03:05:43;;;;;;;9.87;4.03;;;;;;;4.49;100.00;100089.00;5389142;26;20346;-73
2024/04/19 03:08:09;;;;;;;9.57;4.60;;;;;;;4.61;100.00;100082.59;5395976;26;20450;-73
2024/04/19 03:10:38;;;;;;;7.00;4.30;;;;;;;4.53;100.00;100062.16;5397511;26;20055;-75
2024/04/19 03:13:07;;;;;;;9.38;4.40;;;;;;;4.44;100.00;100058.53;5373450;26;20230;-73
2024/04/19 03:15:33;;;;;;;14.35;5.32;;;;;;;4.32;100.00;100048.25;5374967;26;20076;-76
2024/04/19 03:17:58;;;;;;;11.77;5.72;;;;;;;4.55;100.00;100062.03;5392833;26;20501;-77
2024/04/19 03:20:24;;;;;;;15.98;6.00;;;;;;;4.41;100.00;100050.06;5397295;26;20004;-74
2024/04/19 03:22:49;;;;;;;14.53;6.07;;;;;;;4.46;100.00;100039.91;5382493;26;19996;-73
2024/04/19 03:25:15;;;;;;;13.87;5.73;;;;;;;4.35;100.00;100034.75;5403359;26;20238;-76
2024/04/19 03:27:40;;;;;;;10.52;6.10;;;;;;;4.41;100.00;100034.22;5389233;26;20078;-75
2024/04/19 03:30:06;;;;;;;10.23;5.65;;;;;;;4.28;100.00;100021.25;5403991;26;20012;-73
2024/04/19 03:32:31;;;;;;;11.35;5.70;;;;;;;4.32;100.00;100014.72;5385854;26;20014;-73
2024/04/19 03:34:57;;;;;;;10.13;6.23;;;;;;;4.48;100.00;100022.09;5396284;26;20008;-76
2024/04/19 03:37:23;;;;;;;12.75;6.80;;;;;;;4.42;100.00;100012.06;5424606;26;20040;-78
2024/04/19 03:39:48;;;;;;;12.02;7.05;;;;;;;4.27;100.00;100003.75;5395177;26;20424;-77
2024/04/19 03:42:18;;;;;;;12.23;7.43;;;;;;;4.28;100.00;100004.56;5395630;26;20073;-73
2024/04/19 03:47:27;;;;;;;19.33;8.65;;;;;;;4.29;100.00;99991.22;5395359;26;20073;-74
2024/04/19 03:49:53;;;;;;;11.38;7.03;;;;;;;4.38;100.00;99995.69;5410312;26;20494;-79
2024/04/19 03:52:18;;;;;;;13.32;8.05;;;;;;;4.31;100.00;99988.44;5411503;26;20004;-74
2024/04/19 03:54:44;;;;;;;16.70;7.88;;;;;;;4.37;100.00;99978.13;5410249;26;19999;-73
2024/04/19 03:57:09;;;;;;;17.67;8.82;;;;;;;4.45;100.00;99969.53;5380368;26;20007;-74
2024/04/19 03:59:35;;;;;;;12.85;8.00;;;;;;;4.36;100.00;99954.50;5385238;26;20455;-74
2024/04/19 04:02:12;;;;;;;10.63;6.35;;;;;;;4.22;100.00;99953.97;5380087;26;20051;-74
2024/04/19 04:04:52;;;;;;;13.90;7.47;;;;;;;4.21;100.00;99941.75;5424232;26;20451;-73
2024/04/19 04:07:18;;;;;;;14.73;7.10;;;;;;;4.32;100.00;99943.38;5409842;26;20003;-74
2024/04/19 04:09:43;;;;;;;10.77;5.75;;;;;;;4.15;100.00;99923.81;5398495;26;20012;-77
2024/04/19 04:12:08;;;;;;;10.02;6.40;;;;;;;4.28;100.00;99920.00;5414499;26;20029;-74
2024/04/19 04:14:34;;;;;;;9.50;6.13;;;;;;;4.17;100.00;99913.94;5405998;26;20003;-74
2024/04/19 04:16:59;;;;;;;7.63;5.43;;;;;;;4.21;100.00;99906.53;5424113;26;20013;-74
2024/04/19 04:19:24;;;;;;;10.40;5.53;;;;;;;4.25;100.00;99897.34;5389678;26;20848;-73
2024/04/19 04:21:50;;;;;;;9.50;5.65;;;;;;;4.29;100.00;99887.34;5403887;26;19996;-75
2024/04/19 04:24:15;;;;;;;8.50;6.40;;;;;;;4.08;100.00;99874.31;5389739;26;20004;-73
2024/04/19 04:26:41;;;;;;;10.70;6.00;;;;;;;4.05;100.00;99877.22;5386888;26;20691;-73
2024/04/19 04:29:06;;;;;;;10.02;5.85;;;;;;;4.21;100.00;99883.63;5379917;26;20024;-74
2024/04/19 04:31:31;;;;;;;11.18;6.50;;;;;;;4.13;100.00;99859.69;5379731;26;20012;-73
2024/04/19 04:33:57;;;;;;;21.88;6.93;;;;;;;4.15;100.00;99863.03;5396868;26;20004;-73
2024/04/19 04:36:22;;;;;;;8.83;5.47;;;;;;;4.16;100.00;99862.03;5409511;26;19999;-74
2024/04/19 04:38:47;;;;;;;12.77;7.93;;;;;;;4.19;100.00;99856.50;5424325;26;19998;-75
2024/04/19 04:41:14;;;;;;;11.50;6.57;;;;;;;4.13;100.00;99845.66;5414942;26;20576;-78
2024/04/19 04:43:40;;;;;;;9.30;5.80;;;;;;;4.02;100.00;99828.97;5392897;26;20011;-74
2024/04/19 04:46:06;;;;;;;17.35;6.78;;;;;;;4.07;100.00;99833.84;5412436;26;19999;-73
2024/04/19 04:48:31;;;;;;;12.88;6.78;;;;;;;4.04;100.00;99834.13;5396724;26;20709;-73
2024/04/19 04:50:59;;;;;;;12.00;6.68;;;;;;;4.15;100.00;99839.25;5383438;26;20081;-73
2024/04/19 04:53:25;;;;;;;12.50;6.47;;;;;;;4.11;100.00;99824.66;5409184;26;20470;-73
2024/04/19 04:55:50;;;;;;;12.13;5.45;;;;;;;4.08;100.00;99811.75;5408888;26;20019;-73
2024/04/19 04:58:15;;;;;;;8.77;5.43;;;;;;;4.15;100.00;99807.56;5393513;26;20028;-73
2024/04/19 05:00:41;;;;;;;8.77;6.00;;;;;;;4.09;100.00;99805.47;5402829;26;20258;-73
2024/04/19 05:03:06;;;;;;;9.55;5.28;;;;;;;4.12;100.00;99789.38;5413770;26;20458;-74
2024/04/19 05:05:32;;;;;;;9.27;5.78;;;;;;;4.17;100.00;99802.97;5410603;26;19999;-74
2024/04/19 05:07:58;;;;;;;9.13;6.13;;;;;;;4.13;100.00;99788.38;5393244;26;20004;-73
2024/04/19 05:10:23;;;;;;;9.50;6.03;;;;;;;4.15;100.00;99801.44;5395829;26;20266;-75
2024/04/19 05:12:49;;;;;;;9.52;6.18;;;;;;;4.16;100.00;99800.47;5410691;26;19995;-73
2024/04/19 05:15:14;;;;;;;10.45;5.35;;;;;;;4.21;100.00;99795.56;5387124;26;20000;-75
2024/04/19 05:17:40;;;;;;;10.45;5.80;;;;;;;4.26;100.00;99789.84;5373181;26;19996;-74
2024/04/19 05:20:06;;;;;;;13.10;6.15;;;;;;;4.31;100.00;99783.16;5385252;26;20381;-75
2024/04/19 05:22:35;;;;;;;9.05;5.38;;;;;;;4.07;100.00;99765.16;5380877;26;20007;-75
2024/04/19 05:25:00;;;;;;;11.30;6.47;;;;;;;3.98;100.00;99761.59;5397697;26;20093;-75
2024/04/19 05:27:25;;;;;;;8.98;6.00;;;;;;;4.04;100.00;99772.56;5386238;26;20398;-74
2024/04/19 05:29:51;;;;;;;8.03;4.77;;;;;;;3.80;100.00;99750.13;5369884;26;20019;-75
2024/04/19 05:32:16;;;;;;;7.23;4.30;;;;;;;3.97;100.00;99748.53;5406632;26;20312;-74
2024/04/19 05:34:42;;;;;;;7.30;5.13;;;;;;;3.94;100.00;99738.25;5391255;26;20250;-74
2024/04/19 05:37:07;;;;;;;8.25;5.13;;;;;;;3.99;100.00;99736.00;5378176;26;21256;-74
2024/04/19 05:39:33;;;;;;;9.13;6.18;;;;;;;3.86;100.00;99728.41;5407715;26;20458;-77
2024/04/19 05:41:58;;;;;;;8.33;5.47;;;;;;;3.86;100.00;99724.94;5390905;26;20038;-74
2024/04/19 05:44:31;;;;;;;7.10;3.77;;;;;;;3.74;100.00;99722.47;5419134;26;20241;-74
2024/04/19 05:46:56;;;;;;;5.57;3.55;;;;;;;3.86;100.00;99720.47;5377636;26;20269;-73
2024/04/19 05:49:22;;;;;;;6.05;3.50;;;;;;;3.84;100.00;99719.81;5375914;26;19999;-74
2024/04/19 05:51:47;;;;;;;6.80;3.47;;;;;;;3.85;100.00;99696.88;5400802;26;20007;-76
2024/04/19 05:54:13;;;;;;;4.40;2.90;;;;;;;3.92;100.00;99711.16;5389802;26;20007;-78
2024/04/19 05:56:38;;;;;;;5.45;3.78;;;;;;;3.90;100.00;99699.91;5380096;26;20015;-74
2024/04/19 05:59:04;;;;;;;4.80;3.53;;;;;;;3.86;100.00;99693.25;5414885;26;20044;-74
2024/04/19 06:01:29;;;;;;;5.80;4.25;;;;;;;3.85;100.00;99694.25;5380542;26;20419;-74
2024/04/19 06:03:54;;;;;;;8.73;3.88;;;;;;;3.73;100.00;99683.84;5406371;26;20007;-74
2024/04/19 06:06:22;;;;;;;4.33;2.73;;;;;;;3.57;100.00;99673.88;5384948;26;20001;-73
2024/04/19 06:08:48;;;;;;;4.85;3.78;;;;;;;3.68;100.00;99670.25;5385225;26;20590;-77
2024/04/19 06:11:14;;;;;;;6.07;3.63;;;;;;;3.55;100.00;99649.44;5385327;26;19996;-73
2024/04/19 06:13:39;;;;;;;5.85;3.50;;;;;;;3.66;100.00;99655.53;5391469;26;20532;-74
2024/04/19 06:16:05;;;;;;;6.72;3.50;;;;;;;3.68;100.00;99661.50;5389872;26;20007;-73
2024/04/19 06:18:30;;;;;;;9.68;3.75;;;;;;;3.76;100.00;99669.53;5398685;26;20398;-74
2024/04/19 06:20:55;;;;;;;6.40;3.90;;;;;;;3.68;100.00;99651.78;5372269;26;20016;-75
2024/04/19 06:23:21;;;;;;;5.90;3.63;;;;;;;3.69;100.00;99642.88;5372456;26;20005;-74
2024/04/19 06:25:47;;;;;;;7.45;4.07;;;;;;;3.69;100.00;99640.22;5385872;26;20004;-73
2024/04/19 06:28:12;;;;;;;6.40;4.43;;;;;;;3.77;100.00;99639.53;5392090;26;20003;-74
2024/04/19 06:30:37;;;;;;;5.43;3.97;;;;;;;3.81;100.00;99644.34;5381353;26;19996;-77
2024/04/19 06:33:03;;;;;;;6.60;4.60;;;;;;;3.70;100.00;99626.06;5373188;26;20275;-76
2024/04/19 06:35:29;;;;;;;6.15;4.47;;;;;;;3.81;100.00;99625.84;5392694;26;20843;-74
2024/04/19 06:37:54;;;;;;;7.57;4.97;;;;;;;3.86;100.00;99622.78;5392439;26;20483;-74
2024/04/19 06:40:19;;;;;;;7.85;4.90;;;;;;;3.80;100.00;99620.75;5455155;26;20000;-74
2024/04/19 06:42:45;;;;;;;8.85;5.38;;;;;;;3.75;100.00;99623.81;5395832;26;19995;-73
2024/04/19 06:45:10;;;;;;;8.32;4.75;;;;;;;3.89;100.00;99626.97;5376928;26;20000;-74
2024/04/19 06:47:37;;;;;;;9.50;5.85;;;;;;;4.02;100.00;99625.59;5384202;26;20048;-76
2024/04/19 06:50:02;;;;;;;;;;;;;;;4.15;100.00;99613.88;5378892;26;20005;-74
2024/04/19 06:52:27;;;;;;;8.95;5.40;;;;;;;4.06;100.00;99605.03;5391852;26;19990;-76
2024/04/19 06:54:53;;;;;;;8.82;6.00;;;;;;;4.10;100.00;99609.03;5393776;26;20447;-76
2024/04/19 06:57:18;;;;;;;7.45;4.93;;;;;;;4.23;100.00;99611.31;5370961;26;19995;-75
2024/04/19 06:59:44;;;;;;;8.68;5.22;;;;;;;4.13;100.00;99603.47;5403910;26;19992;-73
2024/04/19 07:02:09;;;;;;;9.10;6.25;;;;;;;4.40;100.00;99609.66;5387640;26;20662;-73
2024/04/19 07:04:34;;;;;;;7.55;5.60;;;;;;;4.46;100.00;99603.78;5402177;26;19995;-74
2024/04/19 07:07:00;;;;;;;8.40;6.13;;;;;;;4.43;100.00;99580.31;5423810;26;20458;-73
2024/04/19 07:09:25;;;;;;;8.03;5.67;;;;;;;4.61;100.00;99581.13;5396763;26;20051;-73
2024/04/19 07:11:50;;;;;;;8.33;5.67;;;;;;;4.73;100.00;99580.88;5396879;26;20242;-74
2024/04/19 07:14:16;;;;;;;8.33;6.20;;;;;;;4.99;100.00;99589.69;5412689;26;20540;-72
2024/04/19 07:16:42;;;;;;;7.33;5.67;;;;;;;4.99;100.00;99581.75;5379269;26;20237;-74
2024/04/19 07:19:07;;;;;;;9.35;5.22;;;;;;;5.07;100.00;99589.72;5388664;26;20019;-74
2024/04/19 07:21:33;;;;;;;10.25;6.72;;;;;;;5.14;100.00;99583.81;5401053;26;20006;-79
2024/04/19 07:23:58;;;;;;;10.47;6.20;;;;;;;5.01;100.00;99584.22;5388914;26;19996;-75
2024/04/19 07:26:24;;;;;;;7.97;6.00;;;;;;;5.17;100.00;99586.13;5403507;26;20000;-74
2024/04/19 07:28:49;;;;;;;10.13;5.93;;;;;;;5.31;100.00;99585.56;5382324;26;20230;-74
2024/04/19 07:31:15;;;;;;;10.87;6.67;;;;;;;5.18;100.00;99586.00;5463197;26;20098;-77
2024/04/19 07:33:41;;;;;;;13.75;6.35;;;;;;;5.19;100.00;99581.53;5387988;26;20461;-74
2024/04/19 07:36:07;;;;;;;9.63;7.00;;;;;;;5.31;100.00;99582.91;5372985;26;20000;-73
2024/04/19 07:38:34;;;;;;;9.90;6.90;;;;;;;5.34;100.00;99574.69;5397165;26;21078;-74
2024/04/19 07:41:03;;;;;;;11.80;7.40;;;;;;;5.33;100.00;99569.53;5377195;26;19996;-73
2024/04/19 07:43:29;;;;;;;10.13;6.85;;;;;;;5.33;100.00;99562.41;5393782;26;20077;-75
2024/04/19 07:45:54;;;;;;;13.50;7.33;;;;;;;5.63;100.00;99570.84;5394148;26;19996;-74
2024/04/19 07:48:19;;;;;;;8.93;7.00;;;;;;;5.88;100.00;99571.75;5395547;26;20711;-74
2024/04/19 07:50:45;;;;;;;12.25;7.03;;;;;;;5.81;100.00;99552.22;5407634;26;20572;-77
2024/04/19 07:53:11;;;;;;;8.02;6.13;;;;;;;6.22;100.00;99563.75;5408351;26;20094;-78
2024/04/19 07:55:39;;;;;;;9.57;6.40;;;;;;;6.76;100.00;99568.59;5383588;26;20413;-74
2024/04/19 07:58:05;;;;;;;9.88;5.60;;;;;;;6.76;100.00;99548.19;5388956;26;20687;-73
2024/04/19 08:00:30;;;;;;;9.45;5.82;;;;;;;6.98;100.00;99545.84;5383247;26;20104;-74
2024/04/19 08:02:56;;;;;;;9.73;5.27;;;;;;;6.98;100.00;99530.75;5378138;26;20010;-74
2024/04/19 08:05:22;;;;;;;6.30;4.32;;;;;;;7.23;100.00;99535.16;5389345;26;20227;-73
2024/04/19 08:07:50;;;;;;;6.63;4.47;;;;;;;7.07;100.00;99513.00;5402048;26;20006;-77
2024/04/19 08:10:16;;;;;;;10.43;5.03;;;;;;;6.98;100.00;99511.38;5394982;26;20000;-74
2024/04/19 08:12:43;;;;;;;7.43;4.85;;;;;;;7.09;100.00;99508.31;5407990;26;20019;-76
2024/04/19 08:15:09;;;;;;;8.35;5.47;;;;;;;7.00;100.00;99501.41;5376830;26;20056;-73
2024/04/19 08:17:34;;;;;;;10.60;5.65;;;;;;;7.14;100.00;99515.78;5397241;26;19996;-74
2024/04/19 08:20:00;;;;;;;6.73;5.17;;;;;;;7.45;100.00;99515.84;5379085;26;20000;-74
2024/04/19 08:22:25;;;;;;;7.73;5.07;;;;;;;7.71;100.00;99509.44;5374671;26;20001;-78
2024/04/19 08:24:50;;;;;;;8.77;4.87;;;;;;;7.90;100.00;99500.19;5372903;26;20590;-74
2024/04/19 08:27:17;;;;;;;10.17;4.40;;;;;;;7.64;100.00;99482.72;5401770;26;20007;-74
2024/04/19 08:29:42;;;;;;;8.55;5.32;;;;;;;7.72;100.00;99485.31;5401207;26;20039;-74
2024/04/19 08:32:09;;;;;;;5.80;4.10;;;;;;;7.63;100.00;99472.28;5392410;26;20350;-80
2024/04/19 08:34:35;;;;;;;10.23;4.60;;;;;;;8.16;100.00;99503.31;5389244;26;20000;-74
2024/04/19 08:37:02;;;;;;;6.20;3.90;;;;;;;8.17;100.00;99470.44;5402628;26;20003;-73
2024/04/19 08:39:27;;;;;;;14.45;6.43;;;;;;;7.92;100.00;99445.84;5382002;26;20014;-76
2024/04/19 08:41:57;;;;;;;10.90;4.88;;;;;;;8.52;100.00;99473.50;5395955;26;20040;-77
2024/04/19 08:44:24;;;;;;;8.38;4.55;;;;;;;8.08;100.00;99425.47;5396465;26;20010;-75
2024/04/19 08:46:53;;;;;;;9.05;4.55;;;;;;;8.17;100.00;99437.69;5393200;26;20072;-77
2024/04/19 08:49:19;;;;;;;8.25;4.43;;;;;;;7.81;100.00;99420.50;5372222;26;20351;-75
2024/04/19 08:51:45;;;;;;;12.23;4.43;;;;;;;7.95;100.00;99434.88;5388899;26;20004;-73
2024/04/19 08:54:11;;;;;;;8.85;4.22;;;;;;;8.11;100.00;99441.06;5405042;26;20357;-74
2024/04/19 08:56:38;;;;;;;10.18;4.13;;;;;;;8.18;100.00;99442.81;5406623;26;20786;-74
2024/04/19 08:59:03;;;;;;;;;;;;;;;8.43;100.00;99445.31;5377793;26;20007;-74
2024/04/19 09:01:29;;;;;;;6.45;3.50;;;;;;;8.50;100.00;99438.28;5390274;26;20376;-74
2024/04/19 09:03:54;;;;;;;6.45;3.83;;;;;;;8.90;100.00;99459.31;5392508;26;20000;-75
2024/04/19 09:06:20;;;;;;;11.30;3.33;;;;;;;9.02;100.00;99420.59;5399781;26;20011;-74
2024/04/19 09:08:45;;;;;;;6.78;2.95;;;;;;;9.27;100.00;99392.63;5387138;26;20036;-74
2024/04/19 09:11:18;;;;;;;8.48;3.53;;;;;;;9.65;100.00;99380.97;5408750;26;20010;-74
2024/04/19 09:13:44;;;;;;;10.13;4.28;;;;;;;10.32;100.00;99390.38;5380808;26;19997;-75
2024/04/19 09:16:10;;;;;;;9.85;2.08;;;;;;;10.55;100.00;99366.09;5382411;26;20008;-77
2024/04/19 09:18:36;;;;;;;10.85;1.80;;;;;;;10.75;100.00;99320.84;5380321;26;20000;-77
2024/04/19 09:21:01;;;;;;;20.75;2.53;;;;;;;10.38;100.00;99220.72;5393060;26;19996;-77
2024/04/19 09:23:27;;;;;;;6.17;2.10;;;;;;;10.49;100.00;99217.47;5403027;26;20046;-76
2024/04/19 09:25:54;;;;;;;10.73;3.57;;;;;;;10.35;100.00;99155.25;5407350;26;20018;-72
2024/04/19 09:28:20;;;;;;;11.45;2.22;;;;;;;10.86;100.00;99161.94;5373342;26;20019;-76
2024/04/19 09:30:45;;;;;;;;;;;;;;;10.99;100.00;99145.94;5377761;26;20035;-76
2024/04/19 09:33:17;;;;;;;10.52;1.88;;;;;;;10.65;100.00;99096.19;5391144;26;19925;-76
2024/04/19 09:35:43;;;;;;;11.15;1.80;;;;;;;10.15;100.00;99054.59;5390058;26;20221;-72
2024/04/19 09:38:09;;;;;;;8.00;2.15;;;;;;;10.30;100.00;99082.97;5393589;26;20004;-75
2024/04/19 09:40:35;;;;;;;10.77;1.95;;;;;;;10.38;100.00;99116.66;5393099;26;20000;-76
2024/04/19 09:43:06;;;;;;;6.93;1.92;;;;;;;10.32;100.00;99087.13;5396029;26;20040;-74
2024/04/19 09:45:43;;;;;;;13.10;2.78;;;;;;;10.10;100.00;99038.38;5391634;26;20003;-75
2024/04/19 09:48:10;;;;;;;6.85;1.92;;;;;;;9.66;100.00;98965.03;5400310;26;20001;-76
2024/04/19 09:50:38;;;;;;;11.98;2.13;;;;;;;9.88;100.00;99052.84;5365617;26;19999;-77
2024/04/19 09:53:10;;;;;;;3.78;2.10;;;;;;;9.66;100.00;99017.53;5405376;26;20354;-76
2024/04/19 09:56:07;;;;;;;8.50;2.65;;;;;;;9.85;100.00;99066.59;5389483;26;20003;-76
2024/04/19 09:58:34;;;;;;;8.77;1.60;;;;;;;9.98;100.00;99077.31;5378293;26;20008;-73
2024/04/19 10:01:00;;;;;;;4.03;1.63;;;;;;;9.93;100.00;98983.81;5401234;26;20004;-77
2024/04/19 10:03:28;;;;;;;4.63;1.17;;;;;;;10.65;100.00;98989.44;5406082;26;20007;-77
2024/04/19 10:05:54;;;;;;;8.55;2.10;;;;;;;10.77;100.00;98852.50;5399079;26;20007;-77
2024/04/19 10:08:23;;;;;;;6.10;1.55;;;;;;;10.67;100.00;98865.44;5389987;26;20024;-77
2024/04/19 10:10:50;;;;;;;2.17;1.05;;;;;;;10.68;100.00;98866.28;5398381;26;20027;-74
2024/04/19 10:13:16;;;;;;;4.45;1.55;;;;;;;10.87;100.00;98849.38;5404957;26;20470;-76
2024/04/19 10:15:42;;;;;;;8.85;1.63;;;;;;;10.92;100.00;98838.06;5406422;26;20010;-75
2024/04/19 10:18:08;;;;;;;;;;;;;;;10.76;100.00;98773.44;5422239;26;20016;-77
2024/04/19 10:20:33;;;;;;;9.77;3.28;;;;;;;10.13;100.00;98773.16;5366222;26;20287;-74
2024/04/19 10:22:58;;;;;;;6.10;1.80;;;;;;;9.81;100.00;98791.66;5407413;26;20027;-73
2024/04/19 10:25:24;;;;;;;6.93;1.90;;;;;;;9.71;100.00;98802.72;5391501;26;20349;-74
2024/04/19 10:27:52;;;;;;;6.30;1.90;;;;;;;9.37;100.00;98910.25;5371145;26;20044;-76
2024/04/19 10:30:18;;;;;;;8.27;2.28;;;;;;;9.26;100.00;98986.19;5418928;26;20000;-77
2024/04/19 10:32:57;;;;;;;7.57;2.85;;;;;;;9.92;100.00;99150.09;5405419;26;20451;-76
2024/04/19 10:35:23;;;;;;;9.20;1.67;;;;;;;10.47;100.00;99192.84;5406815;26;20049;-77
2024/04/19 10:37:49;;;;;;;4.00;1.65;;;;;;;10.53;100.00;99091.44;5405521;26;20351;-73
2024/04/19 10:40:14;;;;;;;8.57;1.70;;;;;;;10.76;100.00;99141.78;5407875;26;19999;-75
2024/04/19 10:42:43;;;;;;;5.18;2.10;;;;;;;10.53;100.00;98992.72;5389997;26;20351;-75
2024/04/19 10:45:13;;;;;;;4.40;1.08;;;;;;;11.17;100.00;99011.78;5404639;26;20003;-76
2024/04/19 10:47:40;;;;;;;5.28;1.00;;;;;;;12.25;100.00;99022.69;5404662;26;20010;-75
2024/04/19 10:50:06;;;;;;;9.88;1.73;;;;;;;12.87;100.00;98896.13;5405082;26;20010;-76
2024/04/19 10:52:36;;;;;;;6.90;1.58;;;;;;;13.17;100.00;98721.25;5407604;26;19996;-75
2024/04/19 10:55:02;;;;;;;2.85;0.60;;;;;;;13.73;100.00;98577.84;5395191;26;20455;-77
2024/04/19 10:57:29;;;;;;;;;;;;;;;13.72;100.00;98506.50;5398755;26;19997;-73
2024/04/19 10:59:55;;;;;;;5.43;1.25;;;;;;;13.61;100.00;98365.25;5369700;26;19937;-75
2024/04/19 11:02:21;;;;;;;6.22;0.98;;;;;;;13.13;100.00;98394.03;5394144;26;20018;-78
2024/04/19 11:04:48;;;;;;;3.45;0.95;;;;;;;12.04;100.00;98389.16;5378141;26;20064;-77
2024/04/19 11:07:13;;;;;;;7.93;0.93;;;;;;;11.55;100.00;98321.59;5422271;26;19996;-76
2024/04/19 11:09:39;;;;;;;6.20;1.23;;;;;;;11.40;100.00;98509.00;5382306;26;20458;-77
2024/04/19 11:12:05;;;;;;;5.40;1.42;;;;;;;11.24;100.00;98520.25;5389598;26;20451;-75
2024/04/19 11:14:30;;;;;;;3.75;1.20;;;;;;;11.30;100.00;98564.78;5391829;26;20081;-77
2024/04/19 11:16:56;;;;;;;5.43;1.17;;;;;;;11.18;100.00;98578.06;5407150;26;20000;-76
2024/04/19 11:19:22;;;;;;;2.53;0.60;;;;;;;10.70;100.00;98640.00;5407479;26;20012;-77
2024/04/19 11:21:48;;;;;;;6.47;1.85;;;;;;;10.62;100.00;98776.38;5407196;26;20073;-75
2024/04/19 11:24:18;;;;;;;10.07;0.80;;;;;;;10.84;100.00;99063.38;5395497;26;20068;-77
2024/04/19 11:26:44;;;;;;;3.85;0.60;;;;;;;10.72;100.00;99008.94;5401120;26;20000;-77
2024/04/19 11:29:10;;;;;;;3.75;0.85;;;;;;;10.35;100.00;98979.19;5409560;26;20028;-77
2024/04/19 11:31:35;;;;;;;5.00;1.05;;;;;;;10.39;100.00;99027.59;5410564;26;20003;-77